createdAt,value
2022-11-22T00:00:29.580Z,3.78
2022-11-22T00:03:34.428Z,3.83
2022-11-22T00:06:39.065Z,4.43
2022-11-22T00:09:43.864Z,3.10
2022-11-22T00:12:48.177Z,3.58
2022-11-22T00:16:04.335Z,3.90
2022-11-22T00:19:10.132Z,3.72
2022-11-22T00:22:14.708Z,5.05
2022-11-22T00:25:19.496Z,4.03
2022-11-22T00:28:23.922Z,4.75
2022-11-22T00:31:28.435Z,3.33
2022-11-22T00:34:32.971Z,4.50
2022-11-22T00:37:37.493Z,3.65
2022-11-22T00:40:41.793Z,3.65
2022-11-22T00:43:46.450Z,4.90
2022-11-22T00:46:51.017Z,3.10
2022-11-22T00:49:55.701Z,3.63
2022-11-22T00:53:00.156Z,2.53
2022-11-22T00:56:04.838Z,2.95
2022-11-22T00:59:09.286Z,3.17
2022-11-22T01:02:13.655Z,4.00
2022-11-22T01:05:18.372Z,3.35
2022-11-22T01:08:23.397Z,3.72
2022-11-22T01:11:28.257Z,2.92
2022-11-22T01:14:32.896Z,2.80
2022-11-22T01:17:37.800Z,2.65
2022-11-22T01:20:42.690Z,2.63
2022-11-22T01:23:47.556Z,3.35
2022-11-22T01:26:52.547Z,2.72
2022-11-22T01:29:57.395Z,2.55
2022-11-22T01:33:01.854Z,2.17
2022-11-22T01:36:06.333Z,2.22
2022-11-22T01:39:11.009Z,1.95
2022-11-22T01:42:15.890Z,2.20
2022-11-22T01:45:29.580Z,1.77
2022-11-22T01:49:03.284Z,3.15
2022-11-22T01:52:17.681Z,2.65
2022-11-22T01:55:22.989Z,2.63
2022-11-22T01:58:31.924Z,2.40
2022-11-22T02:01:36.719Z,2.65
2022-11-22T02:04:42.715Z,2.17
2022-11-22T02:07:56.879Z,2.30
2022-11-22T02:14:09.418Z,2.38
2022-11-22T02:17:13.914Z,2.03
2022-11-22T02:20:19.329Z,2.42
2022-11-22T02:23:52.190Z,2.25
2022-11-22T02:26:56.885Z,2.08
2022-11-22T02:30:01.389Z,2.08
2022-11-22T02:33:05.957Z,2.33
2022-11-22T02:36:11.932Z,2.67
2022-11-22T02:39:29.353Z,2.60
2022-11-22T02:42:35.460Z,1.73
2022-11-22T02:45:39.815Z,2.40
2022-11-22T02:48:45.446Z,2.40
2022-11-22T02:51:51.998Z,2.10
2022-11-22T02:54:56.683Z,2.38
2022-11-22T02:58:01.117Z,2.50
2022-11-22T03:01:06.017Z,2.35
2022-11-22T03:04:10.411Z,2.97
2022-11-22T03:07:14.668Z,1.77
2022-11-22T03:10:19.577Z,2.70
2022-11-22T03:13:24.530Z,2.70
2022-11-22T03:16:30.805Z,2.03
2022-11-22T03:19:35.417Z,2.30
2022-11-22T03:22:40.008Z,2.50
2022-11-22T03:25:44.699Z,2.50
2022-11-22T03:28:49.037Z,2.08
2022-11-22T03:31:53.511Z,2.15
2022-11-22T03:34:57.844Z,2.17
2022-11-22T03:38:03.302Z,2.20
2022-11-22T03:41:07.940Z,1.77
2022-11-22T03:44:12.488Z,1.70
2022-11-22T03:47:17.255Z,1.77
2022-11-22T03:50:22.552Z,1.70
2022-11-22T03:53:27.022Z,1.90
2022-11-22T03:56:31.296Z,1.60
2022-11-22T03:59:35.905Z,1.60
2022-11-22T04:02:40.594Z,1.92
2022-11-22T04:05:45.809Z,1.85
2022-11-22T04:08:50.661Z,1.60
2022-11-22T04:11:55.213Z,1.27
2022-11-22T04:15:08.236Z,1.50
2022-11-22T04:18:14.378Z,1.52
2022-11-22T04:21:33.924Z,1.50
2022-11-22T04:24:56.890Z,1.15
2022-11-22T04:28:01.477Z,1.40
2022-11-22T04:31:24.375Z,1.20
2022-11-22T04:34:28.816Z,1.45
2022-11-22T04:37:33.476Z,1.50
2022-11-22T04:40:39.061Z,1.45
2022-11-22T04:44:02.100Z,1.30
2022-11-22T04:47:11.302Z,1.40
2022-11-22T04:50:34.321Z,1.30
2022-11-22T04:53:38.671Z,1.50
2022-11-22T04:56:43.010Z,1.55
2022-11-22T04:59:47.131Z,1.05
2022-11-22T05:02:51.534Z,1.00
2022-11-22T05:05:56.210Z,1.15
2022-11-22T05:09:00.749Z,1.20
2022-11-22T05:12:05.844Z,1.02
2022-11-22T05:15:11.384Z,0.85
2022-11-22T05:18:16.014Z,0.98
2022-11-22T05:21:20.402Z,1.10
2022-11-22T05:24:24.957Z,1.15
2022-11-22T05:27:29.488Z,1.13
2022-11-22T05:30:33.781Z,0.80
2022-11-22T05:33:40.342Z,1.17
2022-11-22T05:36:44.901Z,1.00
2022-11-22T05:39:49.598Z,1.35
2022-11-22T05:42:54.109Z,1.10
2022-11-22T05:46:10.842Z,1.10
2022-11-22T05:49:15.364Z,1.33
2022-11-22T05:52:19.664Z,1.13
2022-11-22T05:55:24.233Z,0.88
2022-11-22T05:58:29.354Z,1.20
2022-11-22T06:01:33.703Z,1.10
2022-11-22T06:04:38.097Z,1.95
2022-11-22T06:07:42.523Z,1.00
2022-11-22T06:10:47.258Z,1.25
2022-11-22T06:13:55.157Z,1.10
2022-11-22T06:17:00.264Z,1.20
2022-11-22T06:20:06.716Z,1.15
2022-11-22T06:23:11.559Z,0.95
2022-11-22T06:26:18.814Z,1.33
2022-11-22T06:29:23.139Z,1.27
2022-11-22T06:32:27.901Z,1.08
2022-11-22T06:35:32.571Z,1.17
2022-11-22T06:38:38.584Z,1.15
2022-11-22T06:41:43.529Z,1.10
2022-11-22T06:44:47.913Z,1.23
2022-11-22T06:47:52.101Z,1.10
2022-11-22T06:51:05.409Z,1.27
2022-11-22T06:54:13.910Z,1.33
2022-11-22T06:57:18.298Z,1.20
2022-11-22T07:00:22.682Z,1.35
2022-11-22T07:03:28.019Z,1.33
2022-11-22T07:06:38.275Z,1.20
2022-11-22T07:09:42.599Z,1.17
2022-11-22T07:12:47.072Z,1.60
2022-11-22T07:16:00.418Z,1.20
2022-11-22T07:19:05.908Z,1.10
2022-11-22T07:22:10.115Z,1.25
2022-11-22T07:25:14.894Z,1.48
2022-11-22T07:28:19.791Z,1.30
2022-11-22T07:31:24.478Z,1.67
2022-11-22T07:34:29.373Z,1.02
2022-11-22T07:37:33.843Z,1.27
2022-11-22T07:40:38.476Z,1.25
2022-11-22T07:43:43.360Z,1.40
2022-11-22T07:46:48.856Z,1.10
2022-11-22T07:49:53.192Z,2.25
2022-11-22T07:52:58.877Z,1.40
2022-11-22T07:56:07.454Z,1.35
2022-11-22T07:59:11.941Z,1.67
2022-11-22T08:02:16.889Z,2.17
2022-11-22T08:05:22.013Z,1.63
2022-11-22T08:08:27.285Z,1.70
2022-11-22T08:11:32.213Z,1.55
2022-11-22T08:14:37.291Z,2.17
2022-11-22T08:17:42.207Z,1.80
2022-11-22T08:20:47.005Z,2.15
2022-11-22T08:23:51.800Z,1.58
2022-11-22T08:26:56.750Z,2.42
2022-11-22T08:30:01.616Z,1.58
2022-11-22T08:33:06.360Z,1.42
2022-11-22T08:36:11.302Z,1.30
2022-11-22T08:39:16.047Z,1.30
2022-11-22T08:42:21.195Z,1.45
2022-11-22T08:45:26.290Z,1.88
2022-11-22T08:48:34.809Z,1.33
2022-11-22T08:51:44.996Z,2.13
2022-11-22T08:54:49.598Z,1.77
2022-11-22T08:57:59.700Z,1.63
2022-11-22T09:01:13.853Z,1.75
2022-11-22T09:04:18.209Z,1.98
2022-11-22T09:10:47.005Z,2.15
2022-11-22T09:13:51.401Z,1.40
2022-11-22T09:16:55.832Z,2.40
2022-11-22T09:20:00.571Z,1.75
2022-11-22T09:23:04.877Z,1.55
2022-11-22T09:26:16.850Z,1.25
2022-11-22T09:29:21.133Z,2.17
2022-11-22T09:32:29.434Z,2.33
2022-11-22T09:35:37.173Z,1.55
2022-11-22T09:38:42.404Z,1.80
2022-11-22T09:42:43.323Z,2.28
2022-11-22T09:46:09.668Z,1.42
2022-11-22T09:49:36.750Z,1.38
2022-11-22T09:53:02.807Z,1.42
2022-11-22T09:56:18.186Z,1.30
2022-11-22T09:59:30.240Z,1.17
2022-11-22T10:02:59.820Z,1.58
2022-11-22T10:06:14.636Z,1.55
2022-11-22T10:09:34.531Z,1.85
2022-11-22T10:12:42.603Z,1.30
2022-11-22T10:16:01.807Z,1.08
2022-11-22T10:19:15.801Z,1.40
2022-11-22T10:22:20.508Z,1.40
2022-11-22T10:25:40.577Z,1.27
2022-11-22T10:29:14.103Z,1.30
2022-11-22T10:32:20.634Z,1.63
2022-11-22T10:35:36.853Z,2.40
2022-11-22T10:38:56.703Z,1.52
2022-11-22T10:42:51.788Z,1.63
2022-11-22T10:46:29.971Z,1.45
2022-11-22T10:50:18.789Z,1.30
2022-11-22T10:54:03.849Z,1.25
2022-11-22T10:57:38.215Z,1.85
2022-11-22T11:00:48.286Z,1.20
2022-11-22T11:03:58.378Z,1.30
2022-11-22T11:07:12.044Z,1.42
2022-11-22T11:10:32.350Z,1.50
2022-11-22T11:13:46.715Z,1.17
2022-11-22T11:16:52.399Z,1.80
2022-11-22T11:20:03.157Z,1.13
2022-11-22T11:23:16.126Z,1.30
2022-11-22T11:26:21.261Z,1.30
2022-11-22T11:30:02.005Z,1.27
2022-11-22T11:33:20.108Z,1.35
2022-11-22T11:36:25.367Z,1.00
2022-11-22T11:39:33.059Z,1.23
2022-11-22T11:42:37.545Z,1.10
2022-11-22T11:45:42.631Z,1.05
2022-11-22T11:48:52.188Z,0.93
2022-11-22T11:52:16.160Z,0.93
2022-11-22T11:55:21.152Z,1.10
2022-11-22T11:58:25.854Z,1.08
2022-11-22T12:01:39.156Z,1.00
2022-11-22T12:04:58.113Z,1.40
2022-11-22T12:08:03.059Z,0.82
2022-11-22T12:11:20.619Z,1.33
2022-11-22T12:14:42.694Z,0.90
2022-11-22T12:18:24.399Z,1.02
2022-11-22T12:21:54.389Z,1.30
2022-11-22T12:28:59.112Z,0.95
2022-11-22T12:32:33.690Z,1.20
2022-11-22T12:38:51.749Z,1.02
2022-11-22T12:42:10.828Z,0.82
2022-11-22T12:45:30.444Z,1.10
2022-11-22T12:48:23.869Z,1.27
2022-11-22T12:48:49.415Z,0.90
2022-11-22T12:51:58.187Z,0.80
2022-11-22T12:55:28.212Z,0.80
2022-11-22T12:59:10.477Z,0.63
2022-11-22T13:02:59.299Z,0.80
2022-11-22T13:06:07.127Z,0.88
2022-11-22T13:09:21.884Z,0.90
2022-11-22T13:12:37.604Z,0.70
2022-11-22T13:15:42.333Z,1.00
2022-11-22T13:19:02.691Z,0.88
2022-11-22T13:22:32.996Z,0.88
2022-11-22T13:25:57.750Z,0.70
2022-11-22T13:29:28.422Z,0.60
2022-11-22T13:32:36.302Z,0.75
2022-11-22T13:35:40.650Z,0.70
2022-11-22T13:38:46.522Z,0.70
2022-11-22T13:41:56.957Z,0.73
2022-11-22T13:45:01.526Z,0.60
2022-11-22T13:48:10.324Z,0.90
2022-11-22T13:51:19.671Z,0.70
2022-11-22T13:54:42.676Z,0.50
2022-11-22T13:57:47.315Z,0.75
2022-11-22T14:00:57.302Z,0.60
2022-11-22T14:04:16.859Z,0.70
2022-11-22T14:07:32.733Z,0.60
2022-11-22T14:11:14.344Z,0.60
2022-11-22T14:14:30.722Z,0.68
2022-11-22T14:18:14.500Z,0.75
2022-11-22T14:21:41.226Z,0.60
2022-11-22T14:24:52.976Z,1.00
2022-11-22T14:28:19.637Z,0.80
2022-11-22T14:31:36.392Z,0.90
2022-11-22T14:35:24.927Z,0.60
2022-11-22T14:38:38.946Z,0.70
2022-11-22T14:41:44.688Z,0.70
2022-11-22T14:44:51.853Z,0.80
2022-11-22T14:48:11.962Z,0.80
2022-11-22T14:51:32.471Z,0.88
2022-11-22T14:54:52.384Z,0.80
2022-11-22T14:58:08.160Z,0.93
2022-11-22T15:01:40.280Z,0.90
2022-11-22T15:09:18.218Z,1.02
2022-11-22T15:09:23.704Z,1.40
2022-11-22T15:12:33.468Z,1.30
2022-11-22T15:58:12.681Z,0.70
2022-11-22T16:01:19.541Z,0.60
2022-11-22T16:04:36.035Z,0.55
2022-11-22T16:07:48.684Z,0.65
2022-11-22T16:10:53.547Z,0.60
2022-11-22T16:13:59.136Z,1.02
2022-11-22T16:17:33.283Z,0.70
2022-11-22T16:20:43.206Z,0.73
2022-11-22T16:23:48.322Z,0.52
2022-11-22T16:27:02.685Z,0.60
2022-11-22T16:33:16.458Z,0.57
2022-11-22T16:36:24.418Z,0.75
2022-11-22T16:39:30.118Z,0.80
2022-11-22T16:42:38.001Z,0.88
2022-11-22T16:45:42.452Z,0.65
2022-11-22T16:48:47.489Z,0.73
2022-11-22T16:51:52.152Z,0.90
2022-11-22T16:54:57.730Z,1.00
2022-11-22T16:58:24.621Z,0.90
2022-11-22T17:01:33.359Z,1.08
2022-11-22T17:04:41.098Z,0.90
2022-11-22T17:07:46.200Z,0.90
2022-11-22T17:10:52.770Z,1.00
2022-11-22T17:13:58.909Z,1.05
2022-11-22T17:17:03.673Z,0.90
2022-11-22T17:20:09.067Z,0.90
2022-11-22T17:23:39.334Z,1.20
2022-11-22T17:26:44.350Z,1.08
2022-11-22T17:29:50.921Z,1.50
2022-11-22T17:32:56.405Z,1.45
2022-11-22T17:36:01.044Z,1.33
2022-11-22T17:39:10.249Z,1.92
2022-11-22T17:42:15.436Z,2.47
2022-11-22T17:45:20.038Z,2.05
2022-11-22T17:48:24.939Z,1.70
2022-11-22T17:51:31.051Z,1.90
2022-11-22T17:54:35.445Z,1.73
2022-11-22T17:57:42.303Z,1.70
2022-11-22T18:00:46.977Z,1.95
2022-11-22T18:03:51.987Z,2.30
2022-11-22T18:06:56.429Z,1.77
2022-11-22T18:10:02.102Z,1.80
2022-11-22T18:13:20.924Z,2.03
2022-11-22T18:16:30.075Z,1.80
2022-11-22T18:19:34.792Z,2.25
2022-11-22T18:22:39.549Z,1.95
2022-11-22T18:25:44.524Z,1.90
2022-11-22T18:29:08.712Z,2.40
2022-11-22T18:32:14.035Z,2.17
2022-11-22T18:35:19.195Z,1.80
2022-11-22T18:38:23.771Z,2.17
2022-11-22T18:41:28.825Z,2.30
2022-11-22T18:44:34.325Z,2.50
2022-11-22T18:47:39.295Z,2.63
2022-11-22T18:50:44.770Z,2.00
2022-11-22T18:53:49.502Z,1.98
2022-11-22T18:56:54.220Z,2.40
2022-11-22T18:59:58.639Z,1.83
2022-11-22T19:03:03.584Z,2.08
2022-11-22T19:06:12.452Z,2.20
2022-11-22T19:09:17.561Z,1.88
2022-11-22T19:12:22.403Z,2.10
2022-11-22T19:15:27.186Z,1.95
2022-11-22T19:18:37.195Z,2.17
2022-11-22T19:21:43.658Z,2.05
2022-11-22T19:24:48.612Z,1.73
2022-11-22T19:27:53.344Z,1.85
2022-11-22T19:31:19.969Z,1.90
2022-11-22T19:34:25.246Z,1.90
2022-11-22T19:37:31.740Z,2.10
2022-11-22T19:40:36.574Z,2.00
2022-11-22T19:43:41.475Z,2.42
2022-11-22T19:46:46.272Z,2.00
2022-11-22T19:49:51.242Z,2.13
2022-11-22T19:52:56.167Z,2.00
2022-11-22T19:56:07.072Z,2.67
2022-11-22T19:59:16.005Z,2.38
2022-11-22T20:02:20.801Z,2.08
2022-11-22T20:05:26.544Z,2.20
2022-11-22T20:08:32.117Z,2.30
2022-11-22T20:11:40.330Z,2.00
2022-11-22T20:14:45.039Z,2.20
2022-11-22T20:17:50.044Z,2.30
2022-11-22T20:21:01.998Z,2.20
2022-11-22T20:24:07.092Z,2.45
2022-11-22T20:27:13.371Z,2.80
2022-11-22T20:30:18.019Z,2.25
2022-11-22T20:33:23.089Z,2.00
2022-11-22T20:36:34.481Z,2.08
2022-11-22T20:39:39.245Z,2.75
2022-11-22T20:42:43.968Z,2.55
2022-11-22T20:45:59.988Z,3.03
2022-11-22T20:49:04.932Z,2.50
2022-11-22T20:52:10.501Z,3.00
2022-11-22T20:55:15.782Z,2.58
2022-11-22T20:58:20.647Z,3.58
2022-11-22T21:01:31.030Z,2.90
2022-11-22T21:04:36.063Z,2.53
2022-11-22T21:07:40.890Z,2.70
2022-11-22T21:10:45.777Z,2.95
2022-11-22T21:13:51.953Z,2.38
2022-11-22T21:16:56.454Z,2.03
2022-11-22T21:20:01.262Z,2.45
2022-11-22T21:23:06.098Z,2.20
2022-11-22T21:26:11.078Z,1.80
2022-11-22T21:29:16.717Z,2.17
2022-11-22T21:32:21.382Z,2.00
2022-11-22T21:35:26.321Z,1.98
2022-11-22T21:38:32.834Z,2.15
2022-11-22T21:41:40.507Z,1.92
2022-11-22T21:44:45.883Z,2.20
2022-11-22T21:47:51.131Z,2.00
2022-11-22T21:50:56.850Z,1.83
2022-11-22T21:54:02.753Z,1.88
2022-11-22T21:57:07.818Z,2.20
2022-11-22T22:00:13.510Z,1.80
2022-11-22T22:03:18.554Z,1.77
2022-11-22T22:06:23.493Z,2.40
2022-11-22T22:09:28.153Z,2.45
2022-11-22T22:12:32.708Z,1.70
2022-11-22T22:15:39.530Z,2.17
2022-11-22T22:18:45.177Z,1.50
2022-11-22T22:21:50.034Z,1.90
2022-11-22T22:24:54.683Z,1.80
2022-11-22T22:27:59.637Z,1.80
2022-11-22T22:31:11.578Z,1.80
2022-11-22T22:34:18.200Z,2.30
2022-11-22T22:37:22.981Z,1.63
2022-11-22T22:40:27.650Z,1.52
2022-11-22T22:43:38.271Z,1.95
2022-11-22T22:46:43.106Z,1.90
2022-11-22T22:49:47.443Z,2.00
2022-11-22T22:52:51.617Z,1.63
2022-11-22T22:55:56.193Z,2.00
2022-11-22T22:59:01.408Z,1.73
2022-11-22T23:02:06.388Z,1.80
2022-11-22T23:05:10.948Z,2.30
2022-11-22T23:08:15.530Z,1.70
2022-11-22T23:11:44.524Z,1.67
2022-11-22T23:14:49.271Z,1.60
2022-11-22T23:17:54.114Z,1.70
2022-11-22T23:21:00.285Z,1.60
2022-11-22T23:24:06.459Z,1.45
2022-11-22T23:27:11.506Z,1.60
2022-11-22T23:30:16.791Z,1.55
2022-11-22T23:33:21.898Z,1.52
2022-11-22T23:36:27.574Z,1.60
2022-11-22T23:39:32.708Z,1.55
2022-11-22T23:42:37.542Z,1.45
2022-11-22T23:45:46.417Z,1.55
2022-11-22T23:48:55.582Z,1.75
2022-11-22T23:52:01.481Z,1.75
2022-11-22T23:55:06.611Z,1.95
2022-11-22T23:58:11.192Z,1.70
